sensor_id;sensor_type;location;lat;lon;timestamp;pressure;altitude;pressure_sealevel;temperature;humidity
16100;BME280;8154;50.830;12.082;2023-05-22T00:29:01;99300.47;;;26.11;34.73
16100;BME280;8154;50.830;12.082;2023-05-22T00:31:28;99302.09;;;26.12;34.77
16100;BME280;8154;50.830;12.082;2023-05-22T00:33:55;99298.63;;;26.11;34.59
16100;BME280;8154;50.830;12.082;2023-05-22T00:36:21;99298.84;;;26.10;34.60
16100;BME280;8154;50.830;12.082;2023-05-22T00:38:47;99295.53;;;26.08;34.60
16100;BME280;8154;50.830;12.082;2023-05-22T00:41:13;99294.72;;;26.07;34.70
16100;BME280;8154;50.830;12.082;2023-05-22T00:43:39;99292.66;;;26.09;34.67
16100;BME280;8154;50.830;12.082;2023-05-22T00:46:05;99298.41;;;26.13;34.70
16100;BME280;8154;50.830;12.082;2023-05-22T00:48:32;99293.03;;;26.13;34.69
16100;BME280;8154;50.830;12.082;2023-05-22T00:50:59;99288.13;;;26.10;34.79
16100;BME280;8154;50.830;12.082;2023-05-22T00:53:27;99295.13;;;26.11;34.72
16100;BME280;8154;50.830;12.082;2023-05-22T00:55:53;99292.66;;;26.09;34.75
16100;BME280;8154;50.830;12.082;2023-05-22T00:58:19;99289.75;;;26.11;34.64
16100;BME280;8154;50.830;12.082;2023-05-22T01:00:46;99293.03;;;26.13;34.58
16100;BME280;8154;50.830;12.082;2023-05-22T01:03:13;99288.72;;;26.12;34.71
16100;BME280;8154;50.830;12.082;2023-05-22T01:05:40;99289.75;;;26.11;34.69
16100;BME280;8154;50.830;12.082;2023-05-22T01:08:07;99286.47;;;26.09;34.55
16100;BME280;8154;50.830;12.082;2023-05-22T01:10:35;99285.66;;;26.08;34.57
16100;BME280;8154;50.830;12.082;2023-05-22T01:16:09;99279.22;;;26.16;34.58
16100;BME280;8154;50.830;12.082;2023-05-22T02:28:00;99291.03;;;26.08;34.72
16100;BME280;8154;50.830;12.082;2023-05-22T02:30:25;99291.47;;;26.05;34.79
16100;BME280;8154;50.830;12.082;2023-05-22T02:32:54;99284.00;;;26.07;34.73
16100;BME280;8154;50.830;12.082;2023-05-22T02:35:22;99287.50;;;26.08;34.79
16100;BME280;8154;50.830;12.082;2023-05-22T02:37:49;99287.50;;;26.08;34.63
16100;BME280;8154;50.830;12.082;2023-05-22T02:40:15;99285.88;;;26.07;34.73
16100;BME280;8154;50.830;12.082;2023-05-22T02:42:41;99290.19;;;26.08;34.62
16100;BME280;8154;50.830;12.082;2023-05-22T02:45:08;99282.78;;;26.10;34.60
16100;BME280;8154;50.830;12.082;2023-05-22T02:47:34;99285.22;;;26.11;34.79
16100;BME280;8154;50.830;12.082;2023-05-22T02:50:00;99281.31;;;26.07;34.48
16100;BME280;8154;50.830;12.082;2023-05-22T02:52:26;99283.41;;;26.05;34.63
16100;BME280;8154;50.830;12.082;2023-05-22T02:54:53;99285.66;;;26.08;34.63
16100;BME280;8154;50.830;12.082;2023-05-22T02:57:19;99281.94;;;26.09;34.74
16100;BME280;8154;50.830;12.082;2023-05-22T02:59:44;99286.47;;;26.09;34.58
16100;BME280;8154;50.830;12.082;2023-05-22T03:02:11;99286.09;;;26.05;34.70
16100;BME280;8154;50.830;12.082;2023-05-22T03:04:37;99279.06;;;26.04;34.64
16100;BME280;8154;50.830;12.082;2023-05-22T03:07:03;99279.28;;;26.03;34.79
16100;BME280;8154;50.830;12.082;2023-05-22T03:09:31;99278.66;;;26.07;34.68
16100;BME280;8154;50.830;12.082;2023-05-22T03:11:58;99278.00;;;26.12;34.84
16100;BME280;8154;50.830;12.082;2023-05-22T03:14:24;99286.69;;;26.07;34.62
16100;BME280;8154;50.830;12.082;2023-05-22T03:16:50;99275.38;;;26.05;34.81
16100;BME280;8154;50.830;12.082;2023-05-22T03:19:16;99273.94;;;26.03;34.61
16100;BME280;8154;50.830;12.082;2023-05-22T03:21:43;99276.84;;;26.01;34.64
16100;BME280;8154;50.830;12.082;2023-05-22T03:24:09;99269.19;;;26.05;34.60
16100;BME280;8154;50.830;12.082;2023-05-22T03:26:37;99274.13;;;26.08;34.71
16100;BME280;8154;50.830;12.082;2023-05-22T03:29:04;99271.66;;;26.06;34.74
16100;BME280;8154;50.830;12.082;2023-05-22T03:31:32;99272.88;;;26.04;34.88
16100;BME280;8154;50.830;12.082;2023-05-22T03:33:59;99271.25;;;26.03;34.68
16100;BME280;8154;50.830;12.082;2023-05-22T03:36:25;99270.66;;;26.01;34.73
16100;BME280;8154;50.830;12.082;2023-05-22T03:38:51;99268.59;;;26.03;34.85
16100;BME280;8154;50.830;12.082;2023-05-22T03:41:18;99268.38;;;26.04;34.62
16100;BME280;8154;50.830;12.082;2023-05-22T03:43:45;99264.84;;;26.04;34.64
16100;BME280;8154;50.830;12.082;2023-05-22T03:46:11;99271.25;;;26.03;34.68
16100;BME280;8154;50.830;12.082;2023-05-22T03:48:38;99264.06;;;26.03;34.72
16100;BME280;8154;50.830;12.082;2023-05-22T03:51:04;99264.44;;;26.07;34.40
16100;BME280;8154;50.830;12.082;2023-05-22T03:53:30;99266.53;;;26.05;34.75
16100;BME280;8154;50.830;12.082;2023-05-22T03:55:56;99270.44;;;26.02;34.86
16100;BME280;8154;50.830;12.082;2023-05-22T03:58:23;99258.91;;;26.02;34.40
16100;BME280;8154;50.830;12.082;2023-05-22T04:00:53;99260.78;;;26.01;34.80
16100;BME280;8154;50.830;12.082;2023-05-22T04:03:20;99261.59;;;26.02;34.73
16100;BME280;8154;50.830;12.082;2023-05-22T04:05:46;99255.59;;;26.06;34.65
16100;BME280;8154;50.830;12.082;2023-05-22T04:08:12;99265.47;;;26.06;34.66
16100;BME280;8154;50.830;12.082;2023-05-22T04:10:38;99267.53;;;26.04;34.76
16100;BME280;8154;50.830;12.082;2023-05-22T04:13:05;99257.88;;;26.03;34.70
16100;BME280;8154;50.830;12.082;2023-05-22T04:15:31;99261.78;;;26.07;34.75
16100;BME280;8154;50.830;12.082;2023-05-22T04:18:01;99260.13;;;26.06;34.72
16100;BME280;8154;50.830;12.082;2023-05-22T04:20:27;99260.94;;;26.06;34.72
16100;BME280;8154;50.830;12.082;2023-05-22T04:22:53;99256.41;;;26.07;34.66
16100;BME280;8154;50.830;12.082;2023-05-22T04:25:22;99260.56;;;26.03;34.90
16100;BME280;8154;50.830;12.082;2023-05-22T04:27:48;99259.50;;;26.04;34.88
16100;BME280;8154;50.830;12.082;2023-05-22T07:31:04;99231.38;;;27.04;34.82
16100;BME280;8154;50.830;12.082;2023-05-22T07:33:31;99226.63;;;27.06;34.78
16100;BME280;8154;50.830;12.082;2023-05-22T07:35:57;99225.78;;;27.06;34.84
16100;BME280;8154;50.830;12.082;2023-05-22T07:38:24;99227.22;;;27.08;34.87
16100;BME280;8154;50.830;12.082;2023-05-22T07:40:50;99231.91;;;27.13;34.79
16100;BME280;8154;50.830;12.082;2023-05-22T07:43:16;99221.41;;;27.11;34.81
16100;BME280;8154;50.830;12.082;2023-05-22T07:45:42;99230.63;;;27.15;34.80
16100;BME280;8154;50.830;12.082;2023-05-22T07:48:08;99221.78;;;27.15;34.93
16100;BME280;8154;50.830;12.082;2023-05-22T07:50:35;99223.19;;;27.17;34.86
16100;BME280;8154;50.830;12.082;2023-05-22T07:53:01;99220.88;;;27.21;34.76
16100;BME280;8154;50.830;12.082;2023-05-22T07:55:28;99224.38;;;27.21;34.96
16100;BME280;8154;50.830;12.082;2023-05-22T07:57:53;99218.19;;;27.21;35.01
16100;BME280;8154;50.830;12.082;2023-05-22T08:00:20;99213.41;;;27.23;34.76
16100;BME280;8154;50.830;12.082;2023-05-22T08:02:46;99219.81;;;27.22;34.90
16100;BME280;8154;50.830;12.082;2023-05-22T08:05:12;99224.13;;;27.23;35.00
16100;BME280;8154;50.830;12.082;2023-05-22T08:07:38;99220.25;;;27.25;34.96
16100;BME280;8154;50.830;12.082;2023-05-22T08:10:15;99221.63;;;27.28;34.89
16100;BME280;8154;50.830;12.082;2023-05-22T08:12:42;99218.72;;;27.29;34.77
16100;BME280;8154;50.830;12.082;2023-05-22T08:15:08;99226.78;;;27.29;34.75
16100;BME280;8154;50.830;12.082;2023-05-22T08:17:34;99224.69;;;27.31;34.88
16100;BME280;8154;50.830;12.082;2023-05-22T08:20:01;99212.69;;;27.34;34.86
16100;BME280;8154;50.830;12.082;2023-05-22T08:22:28;99221.78;;;27.33;34.92
16100;BME280;8154;50.830;12.082;2023-05-22T08:24:56;99216.78;;;27.37;34.82
16100;BME280;8154;50.830;12.082;2023-05-22T08:27:23;99220.28;;;27.37;34.70
16100;BME280;8154;50.830;12.082;2023-05-22T08:29:49;99219.25;;;27.38;34.74
16100;BME280;8154;50.830;12.082;2023-05-22T08:32:17;99219.47;;;27.37;34.86
16100;BME280;8154;50.830;12.082;2023-05-22T08:34:43;99204.19;;;27.37;34.77
16100;BME280;8154;50.830;12.082;2023-05-22T08:37:10;99216.78;;;27.37;35.00
16100;BME280;8154;50.830;12.082;2023-05-22T08:39:39;99211.53;;;27.42;34.85
16100;BME280;8154;50.830;12.082;2023-05-22T08:42:05;99210.75;;;27.41;34.84
16100;BME280;8154;50.830;12.082;2023-05-22T08:44:31;99204.56;;;27.41;34.95
16100;BME280;8154;50.830;12.082;2023-05-22T08:47:00;99202.69;;;27.41;34.97
16100;BME280;8154;50.830;12.082;2023-05-22T08:49:29;99195.44;;;27.42;34.92
16100;BME280;8154;50.830;12.082;2023-05-22T08:52:09;99194.66;;;27.41;34.85
16100;BME280;8154;50.830;12.082;2023-05-22T08:54:40;99198.13;;;27.42;34.93
16100;BME280;8154;50.830;12.082;2023-05-22T08:57:10;99191.97;;;27.41;34.90
16100;BME280;8154;50.830;12.082;2023-05-22T08:59:38;99193.97;;;27.46;34.75
16100;BME280;8154;50.830;12.082;2023-05-22T09:02:05;99189.38;;;27.46;35.01
16100;BME280;8154;50.830;12.082;2023-05-22T09:04:32;99193.13;;;27.45;34.88
16100;BME280;8154;50.830;12.082;2023-05-22T09:06:59;99188.81;;;27.44;34.94
16100;BME280;8154;50.830;12.082;2023-05-22T09:09:34;99177.03;;;27.45;35.07
16100;BME280;8154;50.830;12.082;2023-05-22T09:12:00;99179.72;;;27.45;34.89
16100;BME280;8154;50.830;12.082;2023-05-22T09:14:26;99180.53;;;27.46;35.10
16100;BME280;8154;50.830;12.082;2023-05-22T09:16:53;99182.16;;;27.47;35.15
16100;BME280;8154;50.830;12.082;2023-05-22T09:19:19;99184.03;;;27.46;35.16
16100;BME280;8154;50.830;12.082;2023-05-22T09:21:45;99170.59;;;27.46;35.02
16100;BME280;8154;50.830;12.082;2023-05-22T09:24:13;99170.59;;;27.46;35.02
16100;BME280;8154;50.830;12.082;2023-05-22T09:26:39;99168.75;;;27.47;35.15
16100;BME280;8154;50.830;12.082;2023-05-22T09:29:05;99175.75;;;27.48;35.13
16100;BME280;8154;50.830;12.082;2023-05-22T09:31:39;99168.97;;;27.45;35.00
16100;BME280;8154;50.830;12.082;2023-05-22T09:34:07;99176.19;;;27.45;35.02
16100;BME280;8154;50.830;12.082;2023-05-22T09:36:37;99175.16;;;27.46;35.21
16100;BME280;8154;50.830;12.082;2023-05-22T09:39:03;99171.44;;;27.47;35.21
16100;BME280;8154;50.830;12.082;2023-05-22T09:41:34;99165.00;;;27.48;35.34
16100;BME280;8154;50.830;12.082;2023-05-22T09:44:08;99172.50;;;27.46;35.18
16100;BME280;8154;50.830;12.082;2023-05-22T09:46:41;99167.69;;;27.48;35.27
16100;BME280;8154;50.830;12.082;2023-05-22T09:49:08;99169.34;;;27.49;35.00
16100;BME280;8154;50.830;12.082;2023-05-22T09:51:34;99162.91;;;27.50;35.22
16100;BME280;8154;50.830;12.082;2023-05-22T09:54:02;99170.75;;;27.51;35.10
16100;BME280;8154;50.830;12.082;2023-05-22T09:56:36;99167.22;;;27.51;35.13
16100;BME280;8154;50.830;12.082;2023-05-22T09:59:07;99163.50;;;27.52;35.22
16100;BME280;8154;50.830;12.082;2023-05-22T10:01:35;99164.34;;;27.52;35.27
16100;BME280;8154;50.830;12.082;2023-05-22T10:04:04;99162.69;;;27.51;35.24
16100;BME280;8154;50.830;12.082;2023-05-22T10:06:33;99158.75;;;27.54;35.15
16100;BME280;8154;50.830;12.082;2023-05-22T10:09:03;99158.38;;;27.50;35.05
16100;BME280;8154;50.830;12.082;2023-05-22T10:11:31;99157.31;;;27.51;35.31
16100;BME280;8154;50.830;12.082;2023-05-22T10:13:59;99150.09;;;27.52;35.50
16100;BME280;8154;50.830;12.082;2023-05-22T10:16:27;99147.19;;;27.53;35.33
16100;BME280;8154;50.830;12.082;2023-05-22T10:18:56;99148.81;;;27.54;35.33
16100;BME280;8154;50.830;12.082;2023-05-22T10:21:23;99145.09;;;27.55;35.27
16100;BME280;8154;50.830;12.082;2023-05-22T10:23:50;99139.72;;;27.55;35.19
16100;BME280;8154;50.830;12.082;2023-05-22T10:26:18;99142.41;;;27.55;35.17
16100;BME280;8154;50.830;12.082;2023-05-22T10:28:49;99129.78;;;27.56;35.27
16100;BME280;8154;50.830;12.082;2023-05-22T10:34:35;99127.69;;;27.58;35.18
16100;BME280;8154;50.830;12.082;2023-05-22T10:42:23;99120.47;;;27.58;35.28
16100;BME280;8154;50.830;12.082;2023-05-22T10:44:51;99109.72;;;27.58;35.35
16100;BME280;8154;50.830;12.082;2023-05-22T10:47:18;99105.38;;;27.57;35.34
16100;BME280;8154;50.830;12.082;2023-05-22T10:49:45;99107.03;;;27.58;35.20
16100;BME280;8154;50.830;12.082;2023-05-22T10:52:11;99115.66;;;27.60;35.35
16100;BME280;8154;50.830;12.082;2023-05-22T10:54:44;99109.72;;;27.58;35.51
16100;BME280;8154;50.830;12.082;2023-05-22T10:57:15;99102.47;;;27.59;35.32
16100;BME280;8154;50.830;12.082;2023-05-22T10:59:42;99100.38;;;27.61;35.29
16100;BME280;8154;50.830;12.082;2023-05-22T11:02:24;99094.19;;;27.60;35.41
16100;BME280;8154;50.830;12.082;2023-05-22T11:04:54;99107.38;;;27.62;35.18
16100;BME280;8154;50.830;12.082;2023-05-22T11:07:20;99097.47;;;27.62;35.22
16100;BME280;8154;50.830;12.082;2023-05-22T11:09:47;99097.47;;;27.62;35.24
16100;BME280;8154;50.830;12.082;2023-05-22T11:12:26;99097.94;;;27.59;35.35
16100;BME280;8154;50.830;12.082;2023-05-22T11:15:00;99100.63;;;27.59;35.42
16100;BME280;8154;50.830;12.082;2023-05-22T11:17:29;99099.56;;;27.60;35.44
16100;BME280;8154;50.830;12.082;2023-05-22T11:20:00;99094.41;;;27.59;35.29
16100;BME280;8154;50.830;12.082;2023-05-22T11:22:35;99094.41;;;27.59;35.33
16100;BME280;8154;50.830;12.082;2023-05-22T11:25:04;99098.75;;;27.60;35.28
16100;BME280;8154;50.830;12.082;2023-05-22T11:27:31;99096.88;;;27.60;35.37
16100;BME280;8154;50.830;12.082;2023-05-22T11:29:58;99098.75;;;27.60;35.56
16100;BME280;8154;50.830;12.082;2023-05-22T11:32:26;99085.34;;;27.60;35.48
16100;BME280;8154;50.830;12.082;2023-05-22T12:36:39;99050.78;;;27.63;35.52
16100;BME280;8154;50.830;12.082;2023-05-22T12:39:06;99054.28;;;27.64;35.32
16100;BME280;8154;50.830;12.082;2023-05-22T12:41:35;99054.50;;;27.62;35.55
16100;BME280;8154;50.830;12.082;2023-05-22T12:44:01;99049.16;;;27.62;35.63
16100;BME280;8154;50.830;12.082;2023-05-22T12:46:32;99050.22;;;27.61;35.53
16100;BME280;8154;50.830;12.082;2023-05-22T12:48:59;99041.09;;;27.62;35.43
16100;BME280;8154;50.830;12.082;2023-05-22T12:51:27;99051.81;;;27.62;35.55
16100;BME280;8154;50.830;12.082;2023-05-22T12:54:03;99060.47;;;27.64;35.54
16100;BME280;8154;50.830;12.082;2023-05-22T12:56:30;99043.91;;;27.67;35.41
16100;BME280;8154;50.830;12.082;2023-05-22T12:58:57;99050.31;;;27.66;35.42
16100;BME280;8154;50.830;12.082;2023-05-22T13:01:23;99035.84;;;27.67;35.16
16100;BME280;8154;50.830;12.082;2023-05-22T13:03:50;99044.94;;;27.66;35.47
16100;BME280;8154;50.830;12.082;2023-05-22T13:06:17;99026.38;;;27.65;35.43
16100;BME280;8154;50.830;12.082;2023-05-22T13:08:43;99032.56;;;27.65;35.42
16100;BME280;8154;50.830;12.082;2023-05-22T13:11:12;99031.75;;;27.65;35.46
16100;BME280;8154;50.830;12.082;2023-05-22T13:13:38;99028.81;;;27.66;35.58
16100;BME280;8154;50.830;12.082;2023-05-22T13:16:05;99028.81;;;27.66;35.41
16100;BME280;8154;50.830;12.082;2023-05-22T13:18:31;99030.47;;;27.67;35.48
16100;BME280;8154;50.830;12.082;2023-05-22T13:20:57;99034.19;;;27.66;35.48
16100;BME280;8154;50.830;12.082;2023-05-22T13:23:25;99030.47;;;27.67;35.43
16100;BME280;8154;50.830;12.082;2023-05-22T13:25:51;99030.47;;;27.67;35.47
16100;BME280;8154;50.830;12.082;2023-05-22T13:28:17;99023.00;;;27.69;35.41
16100;BME280;8154;50.830;12.082;2023-05-22T13:30:44;99022.19;;;27.69;35.33
16100;BME280;8154;50.830;12.082;2023-05-22T13:33:10;99026.72;;;27.68;35.41
16100;BME280;8154;50.830;12.082;2023-05-22T14:36:49;98972.69;;;27.76;35.02
16100;BME280;8154;50.830;12.082;2023-05-22T14:39:15;98966.72;;;27.74;35.14
16100;BME280;8154;50.830;12.082;2023-05-22T14:41:41;98962.19;;;27.75;35.19
16100;BME280;8154;50.830;12.082;2023-05-22T14:44:08;98964.88;;;27.75;35.22
16100;BME280;8154;50.830;12.082;2023-05-22T14:46:34;98959.25;;;27.76;35.38
16100;BME280;8154;50.830;12.082;2023-05-22T14:49:00;98958.44;;;27.76;35.18
16100;BME280;8154;50.830;12.082;2023-05-22T14:51:26;98964.97;;;27.80;35.11
16100;BME280;8154;50.830;12.082;2023-05-22T14:53:52;98958.78;;;27.79;35.26
16100;BME280;8154;50.830;12.082;2023-05-22T14:56:18;98963.31;;;27.79;35.27
16100;BME280;8154;50.830;12.082;2023-05-22T14:58:44;98951.78;;;27.78;35.11
16100;BME280;8154;50.830;12.082;2023-05-22T15:01:10;98955.28;;;27.79;35.11
16100;BME280;8154;50.830;12.082;2023-05-22T15:03:36;98955.03;;;27.80;35.33
16100;BME280;8154;50.830;12.082;2023-05-22T15:06:03;98956.09;;;27.79;35.31
16100;BME280;8154;50.830;12.082;2023-05-22T15:08:29;98954.47;;;27.78;35.37
16100;BME280;8154;50.830;12.082;2023-05-22T15:10:55;98950.13;;;27.77;35.32
16100;BME280;8154;50.830;12.082;2023-05-22T15:13:21;98952.81;;;27.77;35.21
16100;BME280;8154;50.830;12.082;2023-05-22T15:15:48;98944.78;;;27.77;35.30
16100;BME280;8154;50.830;12.082;2023-05-22T15:18:14;98939.41;;;27.77;35.22
16100;BME280;8154;50.830;12.082;2023-05-22T15:20:40;98936.72;;;27.77;35.26
16100;BME280;8154;50.830;12.082;2023-05-22T15:23:07;98942.91;;;27.78;35.24
16100;BME280;8154;50.830;12.082;2023-05-22T15:25:33;98944.78;;;27.77;35.29
16100;BME280;8154;50.830;12.082;2023-05-22T15:28:01;98943.97;;;27.77;35.28
16100;BME280;8154;50.830;12.082;2023-05-22T15:30:34;98946.91;;;27.75;35.33
16100;BME280;8154;50.830;12.082;2023-05-22T15:33:02;98947.44;;;27.77;35.27
16100;BME280;8154;50.830;12.082;2023-05-22T15:35:28;98951.78;;;27.78;35.11
16100;BME280;8154;50.830;12.082;2023-05-22T15:37:57;98949.09;;;27.78;35.30
16100;BME280;8154;50.830;12.082;2023-05-22T15:40:23;98956.09;;;27.79;35.11
16100;BME280;8154;50.830;12.082;2023-05-22T15:42:53;98952.59;;;27.79;35.17
16100;BME280;8154;50.830;12.082;2023-05-22T15:45:19;98946.19;;;27.80;35.11
16100;BME280;8154;50.830;12.082;2023-05-22T15:47:46;98942.44;;;27.81;35.20
16100;BME280;8154;50.830;12.082;2023-05-22T15:50:12;98938.69;;;27.82;35.27
16100;BME280;8154;50.830;12.082;2023-05-22T15:52:38;98931.47;;;27.82;35.09
16100;BME280;8154;50.830;12.082;2023-05-22T15:55:04;98927.38;;;27.80;35.11
16100;BME280;8154;50.830;12.082;2023-05-22T15:57:31;98927.38;;;27.80;35.20
16100;BME280;8154;50.830;12.082;2023-05-22T15:59:58;98926.56;;;27.79;35.25
16100;BME280;8154;50.830;12.082;2023-05-22T16:02:24;98926.56;;;27.79;35.13
16100;BME280;8154;50.830;12.082;2023-05-22T16:04:51;98923.88;;;27.79;35.21
16100;BME280;8154;50.830;12.082;2023-05-22T16:07:17;98922.81;;;27.80;35.22
16100;BME280;8154;50.830;12.082;2023-05-22T16:09:45;98907.75;;;27.79;35.25
16100;BME280;8154;50.830;12.082;2023-05-22T16:12:11;98907.75;;;27.79;35.25
16100;BME280;8154;50.830;12.082;2023-05-22T16:14:37;98911.03;;;27.81;35.25
16100;BME280;8154;50.830;12.082;2023-05-22T16:17:03;98915.56;;;27.81;35.20
16100;BME280;8154;50.830;12.082;2023-05-22T16:19:29;98909.97;;;27.82;35.24
16100;BME280;8154;50.830;12.082;2023-05-22T16:21:55;98919.09;;;27.81;35.00
16100;BME280;8154;50.830;12.082;2023-05-22T16:24:21;98921.19;;;27.79;35.29
16100;BME280;8154;50.830;12.082;2023-05-22T16:26:47;98912.31;;;27.79;35.16
16100;BME280;8154;50.830;12.082;2023-05-22T16:29:13;98910.44;;;27.79;35.25
16100;BME280;8154;50.830;12.082;2023-05-22T16:31:39;98905.06;;;27.79;35.19
16100;BME280;8154;50.830;12.082;2023-05-22T16:34:06;98910.44;;;27.79;35.26
16100;BME280;8154;50.830;12.082;2023-05-22T17:37:46;98922.81;;;27.80;35.11
16100;BME280;8154;50.830;12.082;2023-05-22T17:40:12;98919.56;;;27.78;35.10
16100;BME280;8154;50.830;12.082;2023-05-22T17:42:38;98920.59;;;27.77;35.22
16100;BME280;8154;50.830;12.082;2023-05-22T17:45:04;98920.13;;;27.80;35.08
16100;BME280;8154;50.830;12.082;2023-05-22T17:47:31;98919.56;;;27.78;35.10
16100;BME280;8154;50.830;12.082;2023-05-22T17:49:57;98925.25;;;27.82;35.15
16100;BME280;8154;50.830;12.082;2023-05-22T17:52:22;98919.31;;;27.80;35.16
16100;BME280;8154;50.830;12.082;2023-05-22T17:54:49;98919.56;;;27.78;35.12
16100;BME280;8154;50.830;12.082;2023-05-22T17:57:15;98923.88;;;27.79;35.04
16100;BME280;8154;50.830;12.082;2023-05-22T17:59:41;98930.06;;;27.80;35.09
16100;BME280;8154;50.830;12.082;2023-05-22T18:02:07;98932.53;;;27.81;34.92
16100;BME280;8154;50.830;12.082;2023-05-22T18:04:34;98933.56;;;27.80;35.20
16100;BME280;8154;50.830;12.082;2023-05-22T18:07:01;98946.75;;;27.82;34.90
16100;BME280;8154;50.830;12.082;2023-05-22T18:09:27;98959.13;;;27.83;34.88
16100;BME280;8154;50.830;12.082;2023-05-22T18:11:53;98965.53;;;27.82;34.90
16100;BME280;8154;50.830;12.082;2023-05-22T18:14:19;98969.66;;;27.84;34.85
16100;BME280;8154;50.830;12.082;2023-05-22T18:16:46;98976.88;;;27.84;35.12
16100;BME280;8154;50.830;12.082;2023-05-22T18:19:12;98972.81;;;27.81;34.90
16100;BME280;8154;50.830;12.082;2023-05-22T18:21:38;98977.13;;;27.82;34.97
16100;BME280;8154;50.830;12.082;2023-05-22T18:24:04;98983.53;;;27.81;35.14
16100;BME280;8154;50.830;12.082;2023-05-22T18:26:30;98985.16;;;27.82;34.89
16100;BME280;8154;50.830;12.082;2023-05-22T18:28:56;98996.50;;;27.84;35.04
16100;BME280;8154;50.830;12.082;2023-05-22T18:31:22;98999.19;;;27.84;34.88
16100;BME280;8154;50.830;12.082;2023-05-22T18:33:48;99005.34;;;27.85;35.01
16100;BME280;8154;50.830;12.082;2023-05-22T18:36:14;99008.88;;;27.85;35.02
16100;BME280;8154;50.830;12.082;2023-05-22T21:39:23;99030.84;;;27.71;35.09
16100;BME280;8154;50.830;12.082;2023-05-22T21:41:49;99064.31;;;27.68;35.15
16100;BME280;8154;50.830;12.082;2023-05-22T21:44:15;99061.41;;;27.70;34.98
16100;BME280;8154;50.830;12.082;2023-05-22T21:46:41;99070.53;;;27.69;35.00
16100;BME280;8154;50.830;12.082;2023-05-22T21:49:07;99107.28;;;27.68;35.09
16100;BME280;8154;50.830;12.082;2023-05-22T21:51:34;99094.91;;;27.67;35.25
16100;BME280;8154;50.830;12.082;2023-05-22T21:54:00;99075.88;;;27.69;35.13
16100;BME280;8154;50.830;12.082;2023-05-22T21:56:26;99089.09;;;27.70;35.14
16100;BME280;8154;50.830;12.082;2023-05-22T21:58:52;99099.00;;;27.70;35.02
16100;BME280;8154;50.830;12.082;2023-05-22T22:01:18;99102.50;;;27.70;35.19
16100;BME280;8154;50.830;12.082;2023-05-22T22:03:45;99100.84;;;27.69;35.01
16100;BME280;8154;50.830;12.082;2023-05-22T22:06:11;99099.00;;;27.70;34.97
16100;BME280;8154;50.830;12.082;2023-05-22T22:08:38;99091.78;;;27.70;35.04
16100;BME280;8154;50.830;12.082;2023-05-22T22:11:04;99084.53;;;27.71;35.26
16100;BME280;8154;50.830;12.082;2023-05-22T22:13:31;99081.03;;;27.70;35.09
16100;BME280;8154;50.830;12.082;2023-05-22T22:15:57;99086.41;;;27.70;35.21
16100;BME280;8154;50.830;12.082;2023-05-22T22:18:24;99079.38;;;27.69;35.13
16100;BME280;8154;50.830;12.082;2023-05-22T22:20:50;99082.66;;;27.71;35.13
16100;BME280;8154;50.830;12.082;2023-05-22T22:23:21;99071.31;;;27.69;34.99
16100;BME280;8154;50.830;12.082;2023-05-22T22:25:48;99069.69;;;27.68;34.96
16100;BME280;8154;50.830;12.082;2023-05-22T22:28:14;99069.69;;;27.68;34.97
16100;BME280;8154;50.830;12.082;2023-05-22T22:30:40;99070.53;;;27.69;35.32
16100;BME280;8154;50.830;12.082;2023-05-22T22:33:06;99062.69;;;27.67;35.06
16100;BME280;8154;50.830;12.082;2023-05-22T22:35:33;99069.69;;;27.68;34.98
16100;BME280;8154;50.830;12.082;2023-05-22T23:39:10;99028.81;;;27.66;35.06
16100;BME280;8154;50.830;12.082;2023-05-22T23:41:37;99032.56;;;27.65;35.07
16100;BME280;8154;50.830;12.082;2023-05-22T23:44:03;99045.41;;;27.63;35.11
16100;BME280;8154;50.830;12.082;2023-05-22T23:46:30;99041.91;;;27.63;35.15
16100;BME280;8154;50.830;12.082;2023-05-22T23:48:56;99030.13;;;27.64;35.22
16100;BME280;8154;50.830;12.082;2023-05-22T23:51:22;99029.28;;;27.63;35.21
16100;BME280;8154;50.830;12.082;2023-05-22T23:53:48;99046.22;;;27.64;35.03
16100;BME280;8154;50.830;12.082;2023-05-22T23:56:14;99036.56;;;27.63;35.21
16100;BME280;8154;50.830;12.082;2023-05-22T23:58:40;99051.81;;;27.62;34.95
